sensor_id;sensor_type;location;lat;lon;timestamp;temperature;humidity
67641;SHT31;54434;50.096;20.082;2024-01-06T00:00:52;1.32;82.40
67641;SHT31;54434;50.096;20.082;2024-01-06T00:03:46;1.31;82.33
67641;SHT31;54434;50.096;20.082;2024-01-06T00:06:23;1.31;82.40
67641;SHT31;54434;50.096;20.082;2024-01-06T00:09:00;1.31;82.44
67641;SHT31;54434;50.096;20.082;2024-01-06T00:11:37;1.31;82.41
67641;SHT31;54434;50.096;20.082;2024-01-06T00:14:13;1.30;82.44
67641;SHT31;54434;50.096;20.082;2024-01-06T00:16:54;1.31;82.40
67641;SHT31;54434;50.096;20.082;2024-01-06T00:19:31;1.30;82.41
67641;SHT31;54434;50.096;20.082;2024-01-06T00:22:08;1.30;82.44
67641;SHT31;54434;50.096;20.082;2024-01-06T00:24:44;1.31;82.37
67641;SHT31;54434;50.096;20.082;2024-01-06T00:27:21;1.30;82.40
67641;SHT31;54434;50.096;20.082;2024-01-06T00:29:57;1.29;82.33
67641;SHT31;54434;50.096;20.082;2024-01-06T00:32:34;1.26;82.39
67641;SHT31;54434;50.096;20.082;2024-01-06T00:35:10;1.26;82.41
67641;SHT31;54434;50.096;20.082;2024-01-06T00:37:47;1.24;82.50
67641;SHT31;54434;50.096;20.082;2024-01-06T00:40:24;1.24;82.50
67641;SHT31;54434;50.096;20.082;2024-01-06T00:43:00;1.22;82.56
67641;SHT31;54434;50.096;20.082;2024-01-06T00:45:37;1.25;82.60
67641;SHT31;54434;50.096;20.082;2024-01-06T00:48:17;1.25;82.58
67641;SHT31;54434;50.096;20.082;2024-01-06T00:50:54;1.28;82.54
67641;SHT31;54434;50.096;20.082;2024-01-06T00:53:31;1.29;82.54
67641;SHT31;54434;50.096;20.082;2024-01-06T00:56:08;1.28;82.47
67641;SHT31;54434;50.096;20.082;2024-01-06T00:58:48;1.26;82.51
67641;SHT31;54434;50.096;20.082;2024-01-06T01:01:24;1.27;82.62
67641;SHT31;54434;50.096;20.082;2024-01-06T01:04:01;1.28;82.63
67641;SHT31;54434;50.096;20.082;2024-01-06T01:06:39;1.29;82.65
67641;SHT31;54434;50.096;20.082;2024-01-06T01:09:16;1.27;82.69
67641;SHT31;54434;50.096;20.082;2024-01-06T01:11:52;1.26;82.72
67641;SHT31;54434;50.096;20.082;2024-01-06T01:14:28;1.24;82.78
67641;SHT31;54434;50.096;20.082;2024-01-06T01:17:05;1.24;82.80
67641;SHT31;54434;50.096;20.082;2024-01-06T01:19:42;1.25;82.86
67641;SHT31;54434;50.096;20.082;2024-01-06T01:22:19;1.26;82.84
67641;SHT31;54434;50.096;20.082;2024-01-06T01:24:55;1.25;82.87
67641;SHT31;54434;50.096;20.082;2024-01-06T01:27:37;1.24;82.88
67641;SHT31;54434;50.096;20.082;2024-01-06T01:30:14;1.24;82.90
67641;SHT31;54434;50.096;20.082;2024-01-06T01:32:51;1.22;82.90
67641;SHT31;54434;50.096;20.082;2024-01-06T01:35:28;1.22;82.91
67641;SHT31;54434;50.096;20.082;2024-01-06T01:38:04;1.22;82.95
67641;SHT31;54434;50.096;20.082;2024-01-06T01:40:42;1.24;82.90
67641;SHT31;54434;50.096;20.082;2024-01-06T01:43:19;1.25;82.89
67641;SHT31;54434;50.096;20.082;2024-01-06T01:45:56;1.25;82.88
67641;SHT31;54434;50.096;20.082;2024-01-06T01:48:33;1.23;82.84
67641;SHT31;54434;50.096;20.082;2024-01-06T01:51:10;1.23;82.94
67641;SHT31;54434;50.096;20.082;2024-01-06T01:53:47;1.25;83.00
67641;SHT31;54434;50.096;20.082;2024-01-06T01:56:25;1.26;82.99
67641;SHT31;54434;50.096;20.082;2024-01-06T01:59:09;1.26;82.94
67641;SHT31;54434;50.096;20.082;2024-01-06T02:01:46;1.27;82.90
67641;SHT31;54434;50.096;20.082;2024-01-06T02:04:24;1.27;82.93
67641;SHT31;54434;50.096;20.082;2024-01-06T02:07:00;1.28;82.90
67641;SHT31;54434;50.096;20.082;2024-01-06T02:09:37;1.31;82.84
67641;SHT31;54434;50.096;20.082;2024-01-06T02:12:14;1.33;82.79
67641;SHT31;54434;50.096;20.082;2024-01-06T02:14:51;1.33;82.73
67641;SHT31;54434;50.096;20.082;2024-01-06T02:17:27;1.35;82.74
67641;SHT31;54434;50.096;20.082;2024-01-06T02:20:05;1.32;82.73
67641;SHT31;54434;50.096;20.082;2024-01-06T02:22:44;1.34;82.88
67641;SHT31;54434;50.096;20.082;2024-01-06T02:25:20;1.35;82.80
67641;SHT31;54434;50.096;20.082;2024-01-06T02:27:57;1.35;82.80
67641;SHT31;54434;50.096;20.082;2024-01-06T02:30:34;1.36;82.86
67641;SHT31;54434;50.096;20.082;2024-01-06T02:33:11;1.34;82.90
67641;SHT31;54434;50.096;20.082;2024-01-06T02:35:47;1.35;82.96
67641;SHT31;54434;50.096;20.082;2024-01-06T02:38:24;1.35;82.88
67641;SHT31;54434;50.096;20.082;2024-01-06T02:41:03;1.40;82.85
67641;SHT31;54434;50.096;20.082;2024-01-06T02:43:40;1.41;82.73
67641;SHT31;54434;50.096;20.082;2024-01-06T02:46:16;1.41;82.77
67641;SHT31;54434;50.096;20.082;2024-01-06T02:48:53;1.43;82.80
67641;SHT31;54434;50.096;20.082;2024-01-06T02:51:29;1.46;82.78
67641;SHT31;54434;50.096;20.082;2024-01-06T02:54:06;1.50;82.67
67641;SHT31;54434;50.096;20.082;2024-01-06T02:56:42;1.51;82.57
67641;SHT31;54434;50.096;20.082;2024-01-06T02:59:19;1.57;82.57
67641;SHT31;54434;50.096;20.082;2024-01-06T03:01:55;1.59;82.49
67641;SHT31;54434;50.096;20.082;2024-01-06T03:04:31;1.63;82.47
67641;SHT31;54434;50.096;20.082;2024-01-06T03:07:08;1.67;82.40
67641;SHT31;54434;50.096;20.082;2024-01-06T03:09:44;1.65;82.33
67641;SHT31;54434;50.096;20.082;2024-01-06T03:12:21;1.65;82.36
67641;SHT31;54434;50.096;20.082;2024-01-06T03:14:58;1.64;82.33
67641;SHT31;54434;50.096;20.082;2024-01-06T03:17:35;1.66;82.30
67641;SHT31;54434;50.096;20.082;2024-01-06T03:20:12;1.66;82.13
67641;SHT31;54434;50.096;20.082;2024-01-06T03:22:48;1.64;82.15
67641;SHT31;54434;50.096;20.082;2024-01-06T03:25:25;1.68;82.19
67641;SHT31;54434;50.096;20.082;2024-01-06T03:28:01;1.70;82.05
67641;SHT31;54434;50.096;20.082;2024-01-06T03:30:38;1.70;82.04
67641;SHT31;54434;50.096;20.082;2024-01-06T03:33:15;1.72;82.02
67641;SHT31;54434;50.096;20.082;2024-01-06T03:35:51;1.73;82.00
67641;SHT31;54434;50.096;20.082;2024-01-06T03:38:28;1.75;82.00
67641;SHT31;54434;50.096;20.082;2024-01-06T03:41:04;1.76;81.99
67641;SHT31;54434;50.096;20.082;2024-01-06T03:43:41;1.78;81.95
67641;SHT31;54434;50.096;20.082;2024-01-06T03:46:17;1.79;81.83
67641;SHT31;54434;50.096;20.082;2024-01-06T03:48:54;1.78;81.87
67641;SHT31;54434;50.096;20.082;2024-01-06T03:51:30;1.78;81.82
67641;SHT31;54434;50.096;20.082;2024-01-06T03:54:07;1.78;81.80
67641;SHT31;54434;50.096;20.082;2024-01-06T03:56:43;1.79;81.80
67641;SHT31;54434;50.096;20.082;2024-01-06T03:59:20;1.79;81.80
67641;SHT31;54434;50.096;20.082;2024-01-06T04:01:56;1.80;81.76
67641;SHT31;54434;50.096;20.082;2024-01-06T04:04:32;1.79;81.70
67641;SHT31;54434;50.096;20.082;2024-01-06T04:07:09;1.78;81.67
67641;SHT31;54434;50.096;20.082;2024-01-06T04:09:45;1.76;81.70
67641;SHT31;54434;50.096;20.082;2024-01-06T04:12:22;1.75;81.71
67641;SHT31;54434;50.096;20.082;2024-01-06T04:14:59;1.74;81.70
67641;SHT31;54434;50.096;20.082;2024-01-06T04:17:36;1.72;81.77
67641;SHT31;54434;50.096;20.082;2024-01-06T04:20:14;1.70;81.81
67641;SHT31;54434;50.096;20.082;2024-01-06T04:22:50;1.69;81.75
67641;SHT31;54434;50.096;20.082;2024-01-06T04:25:27;1.68;81.78
67641;SHT31;54434;50.096;20.082;2024-01-06T04:28:04;1.66;81.77
67641;SHT31;54434;50.096;20.082;2024-01-06T04:30:40;1.63;81.85
67641;SHT31;54434;50.096;20.082;2024-01-06T04:33:17;1.63;81.82
67641;SHT31;54434;50.096;20.082;2024-01-06T04:35:54;1.63;81.88
67641;SHT31;54434;50.096;20.082;2024-01-06T04:38:31;1.65;81.91
67641;SHT31;54434;50.096;20.082;2024-01-06T04:41:07;1.67;81.91
67641;SHT31;54434;50.096;20.082;2024-01-06T04:43:43;1.67;81.90
67641;SHT31;54434;50.096;20.082;2024-01-06T04:46:20;1.71;81.83
67641;SHT31;54434;50.096;20.082;2024-01-06T04:48:57;1.72;81.80
67641;SHT31;54434;50.096;20.082;2024-01-06T04:51:33;1.73;81.80
67641;SHT31;54434;50.096;20.082;2024-01-06T04:54:10;1.71;81.87
67641;SHT31;54434;50.096;20.082;2024-01-06T04:56:46;1.74;81.91
67641;SHT31;54434;50.096;20.082;2024-01-06T04:59:23;1.77;81.79
67641;SHT31;54434;50.096;20.082;2024-01-06T05:01:59;1.77;81.82
67641;SHT31;54434;50.096;20.082;2024-01-06T05:04:36;1.77;81.76
67641;SHT31;54434;50.096;20.082;2024-01-06T05:07:13;1.78;81.80
67641;SHT31;54434;50.096;20.082;2024-01-06T05:09:49;1.78;81.71
67641;SHT31;54434;50.096;20.082;2024-01-06T05:12:26;1.80;81.70
67641;SHT31;54434;50.096;20.082;2024-01-06T05:15:03;1.83;81.60
67641;SHT31;54434;50.096;20.082;2024-01-06T05:17:42;1.85;81.65
67641;SHT31;54434;50.096;20.082;2024-01-06T05:20:18;1.88;81.68
67641;SHT31;54434;50.096;20.082;2024-01-06T05:22:54;1.90;81.54
67641;SHT31;54434;50.096;20.082;2024-01-06T05:25:31;1.88;81.59
67641;SHT31;54434;50.096;20.082;2024-01-06T05:28:07;1.92;81.56
67641;SHT31;54434;50.096;20.082;2024-01-06T05:30:44;1.94;81.44
67641;SHT31;54434;50.096;20.082;2024-01-06T05:33:21;1.95;81.48
67641;SHT31;54434;50.096;20.082;2024-01-06T05:35:57;1.95;81.45
67641;SHT31;54434;50.096;20.082;2024-01-06T05:38:34;1.96;81.50
67641;SHT31;54434;50.096;20.082;2024-01-06T05:41:10;1.99;81.37
67641;SHT31;54434;50.096;20.082;2024-01-06T05:43:47;2.00;81.27
67641;SHT31;54434;50.096;20.082;2024-01-06T05:46:24;1.98;81.25
67641;SHT31;54434;50.096;20.082;2024-01-06T05:49:01;1.99;81.31
67641;SHT31;54434;50.096;20.082;2024-01-06T05:51:37;2.00;81.29
67641;SHT31;54434;50.096;20.082;2024-01-06T05:54:20;2.00;81.37
67641;SHT31;54434;50.096;20.082;2024-01-06T05:56:58;1.98;81.42
67641;SHT31;54434;50.096;20.082;2024-01-06T05:59:35;1.99;81.41
67641;SHT31;54434;50.096;20.082;2024-01-06T06:02:12;1.98;81.52
67641;SHT31;54434;50.096;20.082;2024-01-06T06:04:48;2.00;81.71
67641;SHT31;54434;50.096;20.082;2024-01-06T06:07:25;1.98;81.77
67641;SHT31;54434;50.096;20.082;2024-01-06T06:10:02;2.00;81.73
67641;SHT31;54434;50.096;20.082;2024-01-06T06:12:41;1.98;81.78
67641;SHT31;54434;50.096;20.082;2024-01-06T06:15:18;2.00;81.85
67641;SHT31;54434;50.096;20.082;2024-01-06T06:17:54;2.01;81.79
67641;SHT31;54434;50.096;20.082;2024-01-06T06:20:33;2.02;81.74
67641;SHT31;54434;50.096;20.082;2024-01-06T06:23:10;2.03;81.72
67641;SHT31;54434;50.096;20.082;2024-01-06T06:25:47;2.05;81.77
67641;SHT31;54434;50.096;20.082;2024-01-06T06:28:24;2.06;81.71
67641;SHT31;54434;50.096;20.082;2024-01-06T06:31:00;2.07;81.70
67641;SHT31;54434;50.096;20.082;2024-01-06T06:33:37;2.07;81.79
67641;SHT31;54434;50.096;20.082;2024-01-06T06:36:14;2.09;81.82
67641;SHT31;54434;50.096;20.082;2024-01-06T06:38:51;2.09;81.80
67641;SHT31;54434;50.096;20.082;2024-01-06T06:41:29;2.07;81.80
67641;SHT31;54434;50.096;20.082;2024-01-06T06:44:06;2.05;81.84
67641;SHT31;54434;50.096;20.082;2024-01-06T06:46:44;2.05;81.84
67641;SHT31;54434;50.096;20.082;2024-01-06T06:49:20;2.04;81.78
67641;SHT31;54434;50.096;20.082;2024-01-06T06:51:57;2.00;81.88
67641;SHT31;54434;50.096;20.082;2024-01-06T06:54:35;2.00;82.07
67641;SHT31;54434;50.096;20.082;2024-01-06T06:57:12;2.00;82.07
67641;SHT31;54434;50.096;20.082;2024-01-06T06:59:48;1.97;82.13
67641;SHT31;54434;50.096;20.082;2024-01-06T07:02:24;1.98;82.21
67641;SHT31;54434;50.096;20.082;2024-01-06T07:05:01;2.00;82.22
67641;SHT31;54434;50.096;20.082;2024-01-06T07:07:39;2.04;82.13
67641;SHT31;54434;50.096;20.082;2024-01-06T07:10:19;2.07;82.07
67641;SHT31;54434;50.096;20.082;2024-01-06T07:12:55;2.09;81.96
67641;SHT31;54434;50.096;20.082;2024-01-06T07:15:32;2.12;81.94
67641;SHT31;54434;50.096;20.082;2024-01-06T07:18:09;2.13;81.92
67641;SHT31;54434;50.096;20.082;2024-01-06T07:20:46;2.16;82.00
67641;SHT31;54434;50.096;20.082;2024-01-06T07:23:24;2.19;81.96
67641;SHT31;54434;50.096;20.082;2024-01-06T07:26:00;2.19;81.91
67641;SHT31;54434;50.096;20.082;2024-01-06T07:28:39;2.20;81.86
67641;SHT31;54434;50.096;20.082;2024-01-06T07:31:15;2.21;81.75
67641;SHT31;54434;50.096;20.082;2024-01-06T07:33:52;2.22;81.70
67641;SHT31;54434;50.096;20.082;2024-01-06T07:36:29;2.23;81.67
67641;SHT31;54434;50.096;20.082;2024-01-06T07:39:06;2.24;81.85
67641;SHT31;54434;50.096;20.082;2024-01-06T07:41:43;2.24;81.96
67641;SHT31;54434;50.096;20.082;2024-01-06T07:44:20;2.26;81.87
67641;SHT31;54434;50.096;20.082;2024-01-06T07:46:57;2.29;81.95
67641;SHT31;54434;50.096;20.082;2024-01-06T07:49:37;2.29;81.87
67641;SHT31;54434;50.096;20.082;2024-01-06T07:52:13;2.33;81.91
67641;SHT31;54434;50.096;20.082;2024-01-06T07:54:50;2.36;81.88
67641;SHT31;54434;50.096;20.082;2024-01-06T07:57:27;2.39;81.86
67641;SHT31;54434;50.096;20.082;2024-01-06T08:00:05;2.41;81.85
67641;SHT31;54434;50.096;20.082;2024-01-06T08:02:46;2.45;81.92
67641;SHT31;54434;50.096;20.082;2024-01-06T08:05:23;2.49;81.90
67641;SHT31;54434;50.096;20.082;2024-01-06T08:07:59;2.54;81.87
67641;SHT31;54434;50.096;20.082;2024-01-06T08:10:37;2.56;81.79
67641;SHT31;54434;50.096;20.082;2024-01-06T08:13:16;2.57;81.48
67641;SHT31;54434;50.096;20.082;2024-01-06T08:15:52;2.58;81.37
67641;SHT31;54434;50.096;20.082;2024-01-06T08:18:31;2.60;81.24
67641;SHT31;54434;50.096;20.082;2024-01-06T08:21:08;2.63;81.28
67641;SHT31;54434;50.096;20.082;2024-01-06T08:23:45;2.66;81.23
67641;SHT31;54434;50.096;20.082;2024-01-06T08:26:22;2.68;81.16
67641;SHT31;54434;50.096;20.082;2024-01-06T08:28:58;2.72;81.12
67641;SHT31;54434;50.096;20.082;2024-01-06T08:31:35;2.77;81.25
67641;SHT31;54434;50.096;20.082;2024-01-06T08:34:12;2.79;81.05
67641;SHT31;54434;50.096;20.082;2024-01-06T08:36:49;2.80;80.87
67641;SHT31;54434;50.096;20.082;2024-01-06T08:39:26;2.78;80.79
67641;SHT31;54434;50.096;20.082;2024-01-06T08:42:03;2.77;80.98
67641;SHT31;54434;50.096;20.082;2024-01-06T08:44:40;2.76;81.01
67641;SHT31;54434;50.096;20.082;2024-01-06T08:47:16;2.74;81.07
67641;SHT31;54434;50.096;20.082;2024-01-06T08:49:53;2.77;81.24
67641;SHT31;54434;50.096;20.082;2024-01-06T08:52:30;2.78;81.30
67641;SHT31;54434;50.096;20.082;2024-01-06T08:55:08;2.77;81.34
67641;SHT31;54434;50.096;20.082;2024-01-06T08:57:46;2.73;81.34
67641;SHT31;54434;50.096;20.082;2024-01-06T09:00:22;2.72;81.48
67641;SHT31;54434;50.096;20.082;2024-01-06T09:03:00;2.75;81.47
67641;SHT31;54434;50.096;20.082;2024-01-06T09:05:38;2.76;81.42
67641;SHT31;54434;50.096;20.082;2024-01-06T09:08:15;2.74;81.36
67641;SHT31;54434;50.096;20.082;2024-01-06T09:10:52;2.74;81.43
67641;SHT31;54434;50.096;20.082;2024-01-06T09:13:30;2.72;81.51
67641;SHT31;54434;50.096;20.082;2024-01-06T09:16:07;2.73;81.59
67641;SHT31;54434;50.096;20.082;2024-01-06T09:18:44;2.76;81.57
67641;SHT31;54434;50.096;20.082;2024-01-06T09:21:21;2.75;81.62
67641;SHT31;54434;50.096;20.082;2024-01-06T09:23:58;2.76;81.67
67641;SHT31;54434;50.096;20.082;2024-01-06T09:26:38;2.81;81.81
67641;SHT31;54434;50.096;20.082;2024-01-06T09:29:16;2.88;81.77
67641;SHT31;54434;50.096;20.082;2024-01-06T09:31:53;2.89;81.67
67641;SHT31;54434;50.096;20.082;2024-01-06T09:34:30;2.94;81.79
67641;SHT31;54434;50.096;20.082;2024-01-06T09:37:10;2.99;81.76
67641;SHT31;54434;50.096;20.082;2024-01-06T09:39:47;3.04;81.69
67641;SHT31;54434;50.096;20.082;2024-01-06T09:42:23;3.04;81.73
67641;SHT31;54434;50.096;20.082;2024-01-06T09:45:00;3.04;81.71
67641;SHT31;54434;50.096;20.082;2024-01-06T09:47:38;3.08;81.82
67641;SHT31;54434;50.096;20.082;2024-01-06T09:50:20;3.12;81.79
67641;SHT31;54434;50.096;20.082;2024-01-06T09:52:56;3.18;81.86
67641;SHT31;54434;50.096;20.082;2024-01-06T09:55:39;3.21;81.83
67641;SHT31;54434;50.096;20.082;2024-01-06T09:58:16;3.25;81.79
67641;SHT31;54434;50.096;20.082;2024-01-06T10:00:52;3.28;81.70
67641;SHT31;54434;50.096;20.082;2024-01-06T10:03:30;3.30;81.70
67641;SHT31;54434;50.096;20.082;2024-01-06T10:06:08;3.30;81.77
67641;SHT31;54434;50.096;20.082;2024-01-06T10:08:47;3.36;81.74
67641;SHT31;54434;50.096;20.082;2024-01-06T10:11:25;3.37;81.80
67641;SHT31;54434;50.096;20.082;2024-01-06T10:14:03;3.41;81.85
67641;SHT31;54434;50.096;20.082;2024-01-06T10:16:40;3.47;81.94
67641;SHT31;54434;50.096;20.082;2024-01-06T10:19:16;3.47;81.83
67641;SHT31;54434;50.096;20.082;2024-01-06T10:21:54;3.51;81.84
67641;SHT31;54434;50.096;20.082;2024-01-06T10:24:34;3.53;81.82
67641;SHT31;54434;50.096;20.082;2024-01-06T10:27:13;3.56;81.91
67641;SHT31;54434;50.096;20.082;2024-01-06T10:29:51;3.61;81.94
67641;SHT31;54434;50.096;20.082;2024-01-06T10:32:27;3.61;81.94
67641;SHT31;54434;50.096;20.082;2024-01-06T10:35:09;3.62;81.86
67641;SHT31;54434;50.096;20.082;2024-01-06T10:37:46;3.64;81.81
67641;SHT31;54434;50.096;20.082;2024-01-06T10:40:25;3.67;81.77
67641;SHT31;54434;50.096;20.082;2024-01-06T10:43:02;3.67;81.70
67641;SHT31;54434;50.096;20.082;2024-01-06T10:45:40;3.64;81.58
67641;SHT31;54434;50.096;20.082;2024-01-06T10:48:18;3.61;81.58
67641;SHT31;54434;50.096;20.082;2024-01-06T10:50:57;3.57;81.62
67641;SHT31;54434;50.096;20.082;2024-01-06T10:53:40;3.57;81.72
67641;SHT31;54434;50.096;20.082;2024-01-06T10:56:17;3.56;81.79
67641;SHT31;54434;50.096;20.082;2024-01-06T10:58:54;3.58;81.88
67641;SHT31;54434;50.096;20.082;2024-01-06T11:01:34;3.58;81.89
67641;SHT31;54434;50.096;20.082;2024-01-06T11:04:13;3.60;81.99
67641;SHT31;54434;50.096;20.082;2024-01-06T11:06:51;3.64;82.08
67641;SHT31;54434;50.096;20.082;2024-01-06T11:09:29;3.64;81.96
67641;SHT31;54434;50.096;20.082;2024-01-06T11:12:10;3.64;81.87
67641;SHT31;54434;50.096;20.082;2024-01-06T11:14:48;3.62;81.80
67641;SHT31;54434;50.096;20.082;2024-01-06T11:17:52;3.61;81.81
67641;SHT31;54434;50.096;20.082;2024-01-06T11:20:31;3.61;81.92
67641;SHT31;54434;50.096;20.082;2024-01-06T11:23:21;3.62;82.07
67641;SHT31;54434;50.096;20.082;2024-01-06T11:25:57;3.66;82.15
67641;SHT31;54434;50.096;20.082;2024-01-06T11:28:39;3.67;81.95
67641;SHT31;54434;50.096;20.082;2024-01-06T11:31:21;3.66;81.84
67641;SHT31;54434;50.096;20.082;2024-01-06T11:34:15;3.67;81.94
67641;SHT31;54434;50.096;20.082;2024-01-06T11:36:53;3.69;82.12
67641;SHT31;54434;50.096;20.082;2024-01-06T11:39:40;3.67;81.81
67641;SHT31;54434;50.096;20.082;2024-01-06T11:42:18;3.63;81.83
67641;SHT31;54434;50.096;20.082;2024-01-06T11:44:54;3.62;82.03
67641;SHT31;54434;50.096;20.082;2024-01-06T11:47:38;3.63;82.10
67641;SHT31;54434;50.096;20.082;2024-01-06T11:50:20;3.61;82.07
67641;SHT31;54434;50.096;20.082;2024-01-06T11:52:57;3.59;82.17
67641;SHT31;54434;50.096;20.082;2024-01-06T11:55:35;3.58;82.20
67641;SHT31;54434;50.096;20.082;2024-01-06T11:58:15;3.57;82.27
67641;SHT31;54434;50.096;20.082;2024-01-06T12:00:57;3.60;82.36
67641;SHT31;54434;50.096;20.082;2024-01-06T12:03:34;3.61;82.37
67641;SHT31;54434;50.096;20.082;2024-01-06T12:06:09;3.59;82.38
67641;SHT31;54434;50.096;20.082;2024-01-06T12:08:46;3.59;82.43
67641;SHT31;54434;50.096;20.082;2024-01-06T12:11:22;3.57;82.50
67641;SHT31;54434;50.096;20.082;2024-01-06T12:13:59;3.58;82.59
67641;SHT31;54434;50.096;20.082;2024-01-06T12:16:36;3.56;82.40
67641;SHT31;54434;50.096;20.082;2024-01-06T12:19:12;3.53;82.56
67641;SHT31;54434;50.096;20.082;2024-01-06T12:21:49;3.52;82.58
67641;SHT31;54434;50.096;20.082;2024-01-06T12:24:28;3.51;82.66
67641;SHT31;54434;50.096;20.082;2024-01-06T12:27:06;3.53;82.61
67641;SHT31;54434;50.096;20.082;2024-01-06T12:29:45;3.54;82.66
67641;SHT31;54434;50.096;20.082;2024-01-06T12:32:21;3.53;82.62
67641;SHT31;54434;50.096;20.082;2024-01-06T12:35:04;3.49;82.57
67641;SHT31;54434;50.096;20.082;2024-01-06T12:37:42;3.45;82.60
67641;SHT31;54434;50.096;20.082;2024-01-06T12:40:21;3.44;82.74
67641;SHT31;54434;50.096;20.082;2024-01-06T12:42:58;3.41;82.80
67641;SHT31;54434;50.096;20.082;2024-01-06T12:45:34;3.41;82.84
67641;SHT31;54434;50.096;20.082;2024-01-06T12:48:11;3.43;82.97
67641;SHT31;54434;50.096;20.082;2024-01-06T12:50:48;3.44;82.92
67641;SHT31;54434;50.096;20.082;2024-01-06T12:53:24;3.44;82.80
67641;SHT31;54434;50.096;20.082;2024-01-06T12:56:01;3.42;82.76
67641;SHT31;54434;50.096;20.082;2024-01-06T12:58:39;3.41;82.70
67641;SHT31;54434;50.096;20.082;2024-01-06T13:01:15;3.38;82.70
67641;SHT31;54434;50.096;20.082;2024-01-06T13:03:52;3.35;82.76
67641;SHT31;54434;50.096;20.082;2024-01-06T13:06:32;3.34;82.83
67641;SHT31;54434;50.096;20.082;2024-01-06T13:09:09;3.32;82.89
67641;SHT31;54434;50.096;20.082;2024-01-06T13:11:48;3.30;82.97
67641;SHT31;54434;50.096;20.082;2024-01-06T13:14:27;3.29;83.09
67641;SHT31;54434;50.096;20.082;2024-01-06T13:17:04;3.28;83.20
67641;SHT31;54434;50.096;20.082;2024-01-06T13:19:41;3.27;83.20
67641;SHT31;54434;50.096;20.082;2024-01-06T13:22:17;3.25;83.14
67641;SHT31;54434;50.096;20.082;2024-01-06T13:24:54;3.23;83.24
67641;SHT31;54434;50.096;20.082;2024-01-06T13:27:31;3.20;83.28
67641;SHT31;54434;50.096;20.082;2024-01-06T13:30:09;3.17;83.36
67641;SHT31;54434;50.096;20.082;2024-01-06T13:32:50;3.15;83.39
67641;SHT31;54434;50.096;20.082;2024-01-06T13:35:27;3.16;83.54
67641;SHT31;54434;50.096;20.082;2024-01-06T13:38:03;3.18;83.54
67641;SHT31;54434;50.096;20.082;2024-01-06T13:40:41;3.19;83.52
67641;SHT31;54434;50.096;20.082;2024-01-06T13:43:17;3.19;83.53
67641;SHT31;54434;50.096;20.082;2024-01-06T13:45:54;3.16;83.49
67641;SHT31;54434;50.096;20.082;2024-01-06T13:48:31;3.14;83.51
67641;SHT31;54434;50.096;20.082;2024-01-06T13:51:07;3.11;83.60
67641;SHT31;54434;50.096;20.082;2024-01-06T13:53:44;3.10;83.59
67641;SHT31;54434;50.096;20.082;2024-01-06T13:56:21;3.09;83.63
67641;SHT31;54434;50.096;20.082;2024-01-06T13:58:58;3.07;83.68
67641;SHT31;54434;50.096;20.082;2024-01-06T14:01:34;3.08;83.73
67641;SHT31;54434;50.096;20.082;2024-01-06T14:04:11;3.07;83.65
67641;SHT31;54434;50.096;20.082;2024-01-06T14:06:49;3.06;83.67
67641;SHT31;54434;50.096;20.082;2024-01-06T14:09:28;3.05;83.78
67641;SHT31;54434;50.096;20.082;2024-01-06T14:12:06;3.06;83.81
67641;SHT31;54434;50.096;20.082;2024-01-06T14:14:43;3.04;83.81
67641;SHT31;54434;50.096;20.082;2024-01-06T14:17:19;3.01;83.90
67641;SHT31;54434;50.096;20.082;2024-01-06T14:19:56;2.99;83.89
67641;SHT31;54434;50.096;20.082;2024-01-06T14:22:33;2.98;83.97
67641;SHT31;54434;50.096;20.082;2024-01-06T14:25:11;2.98;83.97
67641;SHT31;54434;50.096;20.082;2024-01-06T14:27:50;2.98;83.92
67641;SHT31;54434;50.096;20.082;2024-01-06T14:30:27;2.96;83.96
67641;SHT31;54434;50.096;20.082;2024-01-06T14:33:04;2.94;83.97
67641;SHT31;54434;50.096;20.082;2024-01-06T14:35:41;2.94;84.06
67641;SHT31;54434;50.096;20.082;2024-01-06T14:38:17;2.95;84.07
67641;SHT31;54434;50.096;20.082;2024-01-06T14:40:54;2.94;84.07
67641;SHT31;54434;50.096;20.082;2024-01-06T14:43:30;2.92;84.07
67641;SHT31;54434;50.096;20.082;2024-01-06T14:46:07;2.90;84.07
67641;SHT31;54434;50.096;20.082;2024-01-06T14:48:44;2.89;84.06
67641;SHT31;54434;50.096;20.082;2024-01-06T14:51:20;2.89;84.07
67641;SHT31;54434;50.096;20.082;2024-01-06T14:53:57;2.93;84.12
67641;SHT31;54434;50.096;20.082;2024-01-06T14:56:33;2.90;84.00
67641;SHT31;54434;50.096;20.082;2024-01-06T14:59:13;2.88;84.05
67641;SHT31;54434;50.096;20.082;2024-01-06T15:01:52;2.86;84.01
67641;SHT31;54434;50.096;20.082;2024-01-06T15:04:28;2.85;84.09
67641;SHT31;54434;50.096;20.082;2024-01-06T15:07:06;2.82;84.10
67641;SHT31;54434;50.096;20.082;2024-01-06T15:09:42;2.80;84.10
67641;SHT31;54434;50.096;20.082;2024-01-06T15:12:19;2.77;84.14
67641;SHT31;54434;50.096;20.082;2024-01-06T15:14:55;2.75;84.19
67641;SHT31;54434;50.096;20.082;2024-01-06T15:17:32;2.73;84.18
67641;SHT31;54434;50.096;20.082;2024-01-06T15:20:10;2.72;84.28
67641;SHT31;54434;50.096;20.082;2024-01-06T15:22:48;2.71;84.23
67641;SHT31;54434;50.096;20.082;2024-01-06T15:25:24;2.72;84.24
67641;SHT31;54434;50.096;20.082;2024-01-06T15:28:01;2.72;84.31
67641;SHT31;54434;50.096;20.082;2024-01-06T15:30:41;2.71;84.32
67641;SHT31;54434;50.096;20.082;2024-01-06T15:33:17;2.69;84.32
67641;SHT31;54434;50.096;20.082;2024-01-06T15:35:54;2.70;84.39
67641;SHT31;54434;50.096;20.082;2024-01-06T15:38:31;2.71;84.37
67641;SHT31;54434;50.096;20.082;2024-01-06T15:41:07;2.71;84.34
67641;SHT31;54434;50.096;20.082;2024-01-06T15:43:43;2.70;84.30
67641;SHT31;54434;50.096;20.082;2024-01-06T15:46:20;2.67;84.30
67641;SHT31;54434;50.096;20.082;2024-01-06T15:48:57;2.64;84.30
67641;SHT31;54434;50.096;20.082;2024-01-06T15:51:34;2.58;84.31
67641;SHT31;54434;50.096;20.082;2024-01-06T15:54:10;2.55;84.37
67641;SHT31;54434;50.096;20.082;2024-01-06T15:56:47;2.53;84.35
67641;SHT31;54434;50.096;20.082;2024-01-06T15:59:24;2.50;84.29
67641;SHT31;54434;50.096;20.082;2024-01-06T16:02:00;2.47;84.31
67641;SHT31;54434;50.096;20.082;2024-01-06T16:04:37;2.43;84.19
67641;SHT31;54434;50.096;20.082;2024-01-06T16:07:14;2.41;84.16
67641;SHT31;54434;50.096;20.082;2024-01-06T16:09:51;2.38;84.20
67641;SHT31;54434;50.096;20.082;2024-01-06T16:12:28;2.36;84.17
67641;SHT31;54434;50.096;20.082;2024-01-06T16:15:06;2.35;84.23
67641;SHT31;54434;50.096;20.082;2024-01-06T16:17:43;2.31;84.25
67641;SHT31;54434;50.096;20.082;2024-01-06T16:20:20;2.29;84.33
67641;SHT31;54434;50.096;20.082;2024-01-06T16:22:57;2.27;84.31
67641;SHT31;54434;50.096;20.082;2024-01-06T16:25:38;2.26;84.28
67641;SHT31;54434;50.096;20.082;2024-01-06T16:28:14;2.23;84.23
67641;SHT31;54434;50.096;20.082;2024-01-06T16:30:53;2.21;84.24
67641;SHT31;54434;50.096;20.082;2024-01-06T16:33:29;2.18;84.21